TimeMDT,TemperatureF,Dew PointF,Humidity,Sea Level PressureIn,VisibilityMPH,Wind Direction,Wind SpeedMPH,Gust SpeedMPH,PrecipitationIn,Events,Conditions,WindDirDegrees,DateUTC
12:58 AM,59.4,26.4,28,30.11,10.0,SSE,9.2,-,N/A,,Clear,160,2013-04-25 06:58:00
1:58 AM,53.8,22.3,29,30.11,10.0,NNE,8.1,-,N/A,,Clear,30,2013-04-25 07:58:00
2:58 AM,52.9,21.9,30,30.07,10.0,NE,1.2,-,N/A,,Clear,50,2013-04-25 08:58:00
3:58 AM,50.5,22.5,33,29.94,10.0,NNW,8.1,-,N/A,,Clear,330,2013-04-25 09:58:00
4:58 AM,46.4,21.2,37,29.97,10.0,North,4.6,-,N/A,,Clear,350,2013-04-25 10:58:00
5:58 AM,50.0,24.3,37,29.96,10.0,North,9.2,-,N/A,,Partly Cloudy,360,2013-04-25 11:58:00
7:55 AM,53.6,24.8,33,30.03,10.0,WSW,5.8,-,N/A,,Mostly Cloudy,250,2013-04-25 13:55:00
8:58 AM,57.7,26.4,30,30.00,10.0,ENE,6.9,-,N/A,,Clear,70,2013-04-25 14:58:00
9:57 AM,62.6,26.4,25,29.99,10.0,Calm,Calm,-,N/A,,Mostly Cloudy,0,2013-04-25 15:57:00
10:55 AM,64.6,29.1,26,29.94,10.0,SW,4.6,-,N/A,,Partly Cloudy,220,2013-04-25 16:55:00
11:55 AM,71.6,30.2,22,29.91,10.0,SSW,23.0,29.9,N/A,,Partly Cloudy,210,2013-04-25 17:55:00
12:56 PM,71.6,33.8,25,29.89,10.0,South,15.0,20.7,N/A,,Overcast,180,2013-04-25 18:56:00
1:55 PM,75.2,35.6,24,29.89,10.0,SSE,13.8,24.2,N/A,,Overcast,160,2013-04-25 19:55:00
2:58 PM,76.8,35.8,23,29.83,10.0,South,20.7,28.8,N/A,,Partly Cloudy,180,2013-04-25 20:58:00
3:58 PM,79.3,35.4,20,29.78,10.0,SSE,24.2,32.2,N/A,,Clear,160,2013-04-25 21:58:00
4:58 PM,81.9,32.4,17,29.74,10.0,South,25.3,38.0,N/A,,Clear,170,2013-04-25 22:58:00
5:58 PM,82.2,27.3,13,29.73,10.0,South,16.1,28.8,N/A,,Clear,190,2013-04-25 23:58:00
6:58 PM,81.9,21.2,11,29.88,10.0,SSW,16.1,-,N/A,,Clear,200,2013-04-26 00:58:00
7:58 PM,77.4,25.2,15,29.88,10.0,South,12.7,-,N/A,,Clear,180,2013-04-26 01:58:00
8:58 PM,72.9,25.5,17,29.76,10.0,SSW,8.1,-,N/A,,Clear,200,2013-04-26 02:58:00
9:58 PM,68.9,5.5,8,29.94,10.0,SW,11.5,-,N/A,,Clear,230,2013-04-26 03:58:00
10:58 PM,68.5,8.8,10,29.96,9.0,West,12.7,-,N/A,,Clear,260,2013-04-26 04:58:00
11:13 PM,68.0,8.6,10,29.97,10.0,West,12.7,-,N/A,,Clear,270,2013-04-26 05:13:00
11:58 PM,70.3,11.7,10,29.98,10.0,West,16.1,-,N/A,,Clear,260,2013-04-26 05:58:00